createdAt,value
2022-11-01T00:02:13.913Z,85.90
2022-11-01T00:04:43.420Z,85.90
2022-11-01T00:07:11.945Z,85.70
2022-11-01T00:09:40.022Z,85.50
2022-11-01T00:12:08.666Z,85.40
2022-11-01T00:14:37.138Z,85.30
2022-11-01T00:17:05.738Z,85.20
2022-11-01T00:19:33.837Z,85.20
2022-11-01T00:22:04.071Z,85.20
2022-11-01T00:24:32.671Z,85.10
2022-11-01T00:27:01.001Z,85.20
2022-11-01T00:29:29.497Z,85.20
2022-11-01T00:31:58.047Z,85.10
2022-11-01T00:34:26.768Z,85.10
2022-11-01T00:36:54.823Z,85.50
2022-11-01T00:39:28.943Z,85.70
2022-11-01T00:42:00.027Z,86.00
2022-11-01T00:44:28.236Z,86.10
2022-11-01T00:46:56.821Z,86.10
2022-11-01T00:49:24.928Z,86.10
2022-11-01T00:51:53.768Z,86.10
2022-11-01T00:54:23.671Z,86.00
2022-11-01T00:56:52.281Z,85.90
2022-11-01T00:59:20.774Z,85.50
2022-11-01T01:01:49.341Z,85.10
2022-11-01T01:04:17.598Z,84.80
2022-11-01T01:06:45.654Z,84.80
2022-11-01T01:09:14.143Z,84.80
2022-11-01T01:11:43.610Z,84.80
2022-11-01T01:14:12.884Z,84.80
2022-11-01T01:19:10.436Z,84.90
2022-11-01T01:21:39.155Z,85.10
2022-11-01T01:24:07.930Z,85.00
2022-11-01T01:26:35.957Z,85.20
2022-11-01T01:29:05.543Z,85.20
2022-11-01T01:31:34.061Z,85.50
2022-11-01T01:34:02.113Z,85.50
2022-11-01T01:36:30.957Z,85.60
2022-11-01T01:39:00.100Z,85.70
2022-11-01T01:41:46.146Z,86.00
2022-11-01T01:45:09.493Z,86.40
2022-11-01T01:47:40.399Z,87.10
2022-11-01T01:50:12.833Z,86.80
2022-11-01T01:52:46.018Z,87.10
2022-11-01T01:55:16.633Z,87.30
2022-11-01T01:57:45.730Z,87.40
2022-11-01T02:00:17.172Z,87.40
2022-11-01T02:02:45.915Z,87.50
2022-11-01T02:05:21.324Z,87.60
2022-11-01T02:07:50.148Z,87.70
2022-11-01T02:10:19.423Z,87.70
2022-11-01T02:12:49.449Z,87.60
2022-11-01T02:15:25.037Z,87.70
2022-11-01T02:18:08.630Z,87.30
2022-11-01T02:20:48.351Z,87.10
2022-11-01T02:23:37.497Z,86.80
2022-11-01T02:26:34.806Z,86.60
2022-11-01T02:29:15.732Z,86.50
2022-11-01T02:32:18.856Z,86.10
2022-11-01T02:34:53.409Z,86.00
2022-11-01T02:37:28.346Z,85.90
2022-11-01T02:40:04.067Z,86.10
2022-11-01T02:42:38.143Z,86.40
2022-11-01T02:45:10.473Z,86.50
2022-11-01T02:47:40.350Z,86.80
2022-11-01T02:50:11.991Z,87.00
2022-11-01T02:52:42.493Z,87.30
2022-11-01T02:55:30.423Z,87.50
2022-11-01T02:58:00.693Z,87.60
2022-11-01T03:00:31.400Z,87.50
2022-11-01T03:03:11.364Z,87.50
2022-11-01T03:05:56.329Z,87.70
2022-11-01T03:08:27.383Z,87.80
2022-11-01T03:11:05.764Z,87.70
2022-11-01T03:13:52.721Z,87.90
2022-11-01T03:16:38.849Z,88.00
2022-11-01T03:19:24.127Z,87.90
2022-11-01T03:22:01.416Z,87.90
2022-11-01T03:24:33.045Z,87.90
2022-11-01T03:27:05.622Z,88.00
2022-11-01T03:29:36.254Z,87.90
2022-11-01T03:32:06.617Z,88.00
2022-11-01T03:34:38.598Z,87.90
2022-11-01T03:37:12.912Z,87.90
2022-11-01T03:39:44.608Z,87.70
2022-11-01T03:42:17.379Z,87.70
2022-11-01T03:44:49.171Z,87.50
2022-11-01T03:47:17.830Z,87.20
2022-11-01T03:49:47.778Z,87.00
2022-11-01T03:52:16.000Z,86.60
2022-11-01T03:54:44.524Z,86.40
2022-11-01T03:57:12.669Z,86.20
2022-11-01T03:59:41.541Z,86.30
2022-11-01T04:04:39.712Z,86.80
2022-11-01T04:07:10.010Z,86.90
2022-11-01T04:09:38.534Z,86.80
2022-11-01T04:12:07.150Z,86.90
2022-11-01T04:14:52.925Z,86.80
2022-11-01T04:17:46.736Z,86.80
2022-11-01T04:20:32.042Z,87.00
2022-11-01T04:23:01.952Z,86.80
2022-11-01T04:25:31.192Z,86.70
2022-11-01T04:27:59.594Z,87.00
2022-11-01T04:30:29.836Z,87.00
2022-11-01T04:32:58.039Z,86.90
2022-11-01T04:35:26.632Z,86.90
2022-11-01T04:37:58.537Z,87.00
2022-11-01T04:40:28.494Z,87.10
2022-11-01T04:42:57.088Z,87.00
2022-11-01T04:45:25.152Z,86.90
2022-11-01T04:48:03.388Z,86.80
2022-11-01T04:50:31.870Z,86.80
2022-11-01T04:53:01.727Z,86.60
2022-11-01T04:55:31.975Z,86.80
2022-11-01T04:58:00.604Z,86.90
2022-11-01T05:00:28.685Z,87.00
2022-11-01T05:03:02.575Z,87.00
2022-11-01T05:05:31.507Z,87.40
2022-11-01T05:08:04.097Z,87.40
2022-11-01T05:10:34.317Z,87.70
2022-11-01T05:13:02.969Z,87.80
2022-11-01T05:15:32.107Z,87.90
2022-11-01T05:18:01.863Z,87.90
2022-11-01T05:20:30.999Z,87.90
2022-11-01T05:23:00.835Z,87.90
2022-11-01T05:25:32.610Z,88.00
2022-11-01T05:28:07.463Z,87.90
2022-11-01T05:30:37.204Z,88.00
2022-11-01T05:33:07.174Z,88.00
2022-11-01T05:35:36.907Z,88.00
2022-11-01T05:38:06.033Z,87.90
2022-11-01T05:40:35.137Z,87.90
2022-11-01T05:43:05.324Z,87.80
2022-11-01T05:45:33.635Z,87.80
2022-11-01T05:48:05.547Z,87.70
2022-11-01T05:50:33.733Z,87.60
2022-11-01T05:53:09.413Z,87.50
2022-11-01T05:55:37.788Z,87.50
2022-11-01T05:58:08.244Z,87.40
2022-11-01T06:00:36.696Z,87.20
2022-11-01T06:03:05.292Z,87.20
2022-11-01T06:05:34.962Z,88.00
2022-11-01T06:08:04.222Z,87.10
2022-11-01T06:10:33.011Z,87.00
2022-11-01T06:13:01.681Z,87.00
2022-11-01T06:15:34.323Z,86.90
2022-11-01T06:18:06.221Z,86.80
2022-11-01T06:20:37.263Z,86.80
2022-11-01T06:23:11.340Z,86.60
2022-11-01T06:25:39.806Z,86.60
2022-11-01T06:28:07.963Z,86.60
2022-11-01T06:30:39.409Z,86.60
2022-11-01T06:33:09.905Z,86.60
2022-11-01T06:35:39.261Z,86.60
2022-11-01T06:38:08.519Z,86.50
2022-11-01T06:40:37.286Z,86.50
2022-11-01T06:43:07.805Z,86.50
2022-11-01T06:45:37.274Z,86.40
2022-11-01T06:48:07.121Z,86.40
2022-11-01T06:50:35.302Z,86.50
2022-11-01T06:53:04.213Z,86.40
2022-11-01T06:55:32.324Z,86.30
2022-11-01T06:58:02.287Z,86.20
2022-11-01T07:00:32.227Z,86.10
2022-11-01T07:03:04.498Z,86.10
2022-11-01T07:05:37.276Z,86.00
2022-11-01T07:08:07.524Z,85.90
2022-11-01T07:10:37.664Z,85.90
2022-11-01T07:13:07.605Z,85.70
2022-11-01T07:15:35.804Z,85.70
2022-11-01T07:18:08.667Z,85.60
2022-11-01T07:20:42.523Z,85.50
2022-11-01T07:23:13.955Z,85.50
2022-11-01T07:25:42.281Z,85.50
2022-11-01T07:28:11.278Z,85.40
2022-11-01T07:30:40.367Z,85.30
2022-11-01T07:33:10.256Z,85.30
2022-11-01T07:35:39.023Z,85.30
2022-11-01T07:38:09.927Z,85.10
2022-11-01T07:40:41.575Z,85.10
2022-11-01T07:43:10.210Z,85.10
2022-11-01T07:45:38.997Z,85.10
2022-11-01T07:48:12.217Z,85.00
2022-11-01T07:50:41.936Z,85.00
2022-11-01T07:53:12.420Z,84.90
2022-11-01T07:55:40.949Z,84.90
2022-11-01T07:58:10.525Z,84.80
2022-11-01T08:00:39.688Z,84.80
2022-11-01T08:03:10.729Z,84.80
2022-11-01T08:05:39.581Z,84.80
2022-11-01T08:08:08.347Z,84.70
2022-11-01T08:10:37.697Z,84.60
2022-11-01T08:13:07.902Z,84.50
2022-11-01T08:15:36.380Z,84.40
2022-11-01T08:18:05.379Z,84.30
2022-11-01T08:20:35.146Z,84.40
2022-11-01T08:23:03.658Z,84.20
2022-11-01T08:25:32.882Z,84.10
2022-11-01T08:28:04.524Z,84.00
2022-11-01T08:30:33.590Z,84.00
2022-11-01T08:33:02.896Z,84.00
2022-11-01T08:35:32.629Z,84.00
2022-11-01T08:38:03.476Z,84.00
2022-11-01T08:40:33.466Z,83.90
2022-11-01T08:43:02.296Z,84.00
2022-11-01T08:45:31.206Z,83.90
2022-11-01T08:48:00.428Z,84.00
2022-11-01T08:50:29.722Z,84.10
2022-11-01T08:52:57.841Z,85.00
2022-11-01T08:55:27.860Z,84.10
2022-11-01T08:57:59.983Z,84.20
2022-11-01T09:00:29.481Z,84.30
2022-11-01T09:03:00.612Z,84.30
2022-11-01T09:05:31.796Z,84.10
2022-11-01T09:08:01.678Z,84.10
2022-11-01T09:10:32.260Z,84.10
2022-11-01T09:13:01.628Z,84.10
2022-11-01T09:15:30.510Z,84.10
2022-11-01T09:17:59.116Z,84.00
2022-11-01T09:20:28.384Z,83.90
2022-11-01T09:22:57.637Z,83.90
2022-11-01T09:25:25.762Z,83.80
2022-11-01T09:27:57.705Z,83.80
2022-11-01T09:30:26.345Z,83.60
2022-11-01T09:32:54.442Z,83.50
2022-11-01T09:35:22.557Z,83.40
2022-11-01T09:37:51.081Z,83.30
2022-11-01T09:40:19.875Z,83.20
2022-11-01T09:42:49.007Z,83.10
2022-11-01T09:45:21.826Z,83.00
2022-11-01T09:47:54.565Z,82.80
2022-11-01T09:50:27.865Z,82.80
2022-11-01T09:52:57.978Z,82.80
2022-11-01T09:55:41.175Z,82.90
2022-11-01T09:58:17.925Z,82.60
2022-11-01T10:00:54.507Z,82.80
2022-11-01T10:03:49.618Z,82.60
2022-11-01T10:06:23.430Z,82.60
2022-11-01T10:09:00.411Z,82.70
2022-11-01T10:11:58.476Z,82.60
2022-11-01T10:14:43.696Z,82.50
2022-11-01T10:17:16.350Z,82.50
2022-11-01T10:19:47.945Z,82.50
2022-11-01T10:22:19.869Z,82.50
2022-11-01T10:24:52.533Z,82.50
2022-11-01T10:27:30.690Z,82.60
2022-11-01T10:30:04.916Z,82.60
2022-11-01T10:32:40.444Z,82.60
2022-11-01T10:35:16.249Z,82.40
2022-11-01T10:38:04.003Z,82.30
2022-11-01T10:40:44.572Z,82.50
2022-11-01T10:43:16.270Z,82.40
2022-11-01T10:45:47.732Z,82.30
2022-11-01T10:48:30.918Z,82.40
2022-11-01T10:51:01.154Z,82.20
2022-11-01T10:53:31.048Z,82.20
2022-11-01T10:56:05.933Z,82.40
2022-11-01T10:58:39.654Z,82.30
2022-11-01T11:01:13.669Z,82.30
2022-11-01T11:03:46.137Z,82.20
2022-11-01T11:06:18.045Z,82.20
2022-11-01T11:08:51.610Z,82.00
2022-11-01T11:11:31.692Z,81.80
2022-11-01T11:14:02.071Z,81.70
2022-11-01T11:16:36.841Z,81.60
2022-11-01T11:19:20.033Z,81.50
2022-11-01T11:21:50.190Z,81.10
2022-11-01T11:24:21.652Z,81.40
2022-11-01T11:26:54.299Z,81.10
2022-11-01T11:29:39.541Z,80.90
2022-11-01T11:32:15.372Z,80.30
2022-11-01T11:34:45.683Z,80.40
2022-11-01T11:37:21.524Z,80.10
2022-11-01T11:40:15.366Z,79.80
2022-11-01T11:42:44.219Z,79.40
2022-11-01T11:45:20.249Z,79.60
2022-11-01T11:47:48.937Z,79.40
2022-11-01T11:50:32.813Z,79.30
2022-11-01T11:53:09.735Z,79.10
2022-11-01T11:55:44.478Z,79.00
2022-11-01T11:58:22.317Z,79.20
2022-11-01T12:00:53.906Z,79.20
2022-11-01T12:03:22.801Z,79.40
2022-11-01T12:06:01.868Z,79.40
2022-11-01T12:08:45.307Z,79.00
2022-11-01T12:11:14.343Z,78.40
2022-11-01T12:13:45.405Z,78.70
2022-11-01T12:16:20.354Z,78.30
2022-11-01T12:18:51.209Z,78.00
2022-11-01T12:21:24.144Z,78.10
2022-11-01T12:23:56.630Z,77.70
2022-11-01T12:26:26.829Z,77.80
2022-11-01T12:29:08.183Z,77.70
2022-11-01T12:31:37.410Z,77.30
2022-11-01T12:34:15.985Z,77.70
2022-11-01T12:36:52.357Z,77.50
2022-11-01T12:39:33.773Z,77.50
2022-11-01T12:42:05.437Z,77.60
2022-11-01T12:44:37.866Z,77.70
2022-11-01T12:47:14.712Z,77.50
2022-11-01T12:49:51.184Z,77.50
2022-11-01T12:52:28.358Z,77.50
2022-11-01T12:55:05.366Z,77.20
2022-11-01T12:57:35.367Z,77.10
2022-11-01T13:00:05.536Z,77.10
2022-11-01T13:03:05.896Z,77.00
2022-11-01T13:05:47.185Z,76.40
2022-11-01T13:08:27.392Z,76.80
2022-11-01T13:11:04.901Z,76.30
2022-11-01T13:13:43.001Z,76.40
2022-11-01T13:16:17.615Z,76.40
2022-11-01T13:18:52.047Z,76.40
2022-11-01T13:21:38.461Z,76.10
2022-11-01T13:24:14.441Z,75.50
2022-11-01T13:26:50.191Z,76.10
2022-11-01T13:29:24.956Z,76.40
2022-11-01T13:32:02.144Z,76.60
2022-11-01T13:34:44.721Z,76.40
2022-11-01T13:37:23.036Z,76.30
2022-11-01T13:40:05.046Z,76.10
2022-11-01T13:42:40.017Z,75.30
2022-11-01T13:45:42.152Z,75.10
2022-11-01T13:48:23.370Z,74.80
2022-11-01T13:51:05.230Z,75.10
2022-11-01T13:53:38.210Z,74.60
2022-11-01T13:56:12.992Z,74.40
2022-11-01T13:58:42.025Z,74.40
2022-11-01T14:01:33.202Z,74.60
2022-11-01T14:04:37.133Z,74.50
2022-11-01T14:07:16.149Z,74.40
2022-11-01T14:09:48.635Z,74.80
2022-11-01T14:12:40.966Z,74.90
2022-11-01T14:15:20.006Z,74.60
2022-11-01T14:18:05.065Z,75.20
2022-11-01T14:20:51.462Z,74.80
2022-11-01T14:24:00.320Z,74.90
2022-11-01T14:26:58.884Z,74.20
2022-11-01T14:29:30.182Z,74.20
2022-11-01T14:31:59.449Z,74.40
2022-11-01T14:34:36.686Z,74.40
2022-11-01T14:37:16.215Z,74.00
2022-11-01T14:39:52.684Z,73.90
2022-11-01T14:42:26.878Z,73.80
2022-11-01T14:44:59.984Z,73.50
2022-11-01T14:47:36.058Z,73.50
2022-11-01T14:50:14.693Z,73.60
2022-11-01T14:52:49.346Z,73.70
2022-11-01T14:55:23.914Z,73.40
2022-11-01T14:57:53.240Z,73.10
2022-11-01T15:00:30.844Z,73.60
2022-11-01T15:03:01.416Z,73.60
2022-11-01T15:05:30.127Z,73.90
2022-11-01T15:08:01.130Z,73.60
2022-11-01T15:10:41.059Z,73.80
2022-11-01T15:13:09.572Z,74.00
2022-11-01T15:15:40.219Z,73.90
2022-11-01T15:18:16.181Z,73.80
2022-11-01T15:20:50.128Z,73.50
2022-11-01T15:23:21.360Z,73.80
2022-11-01T15:25:53.731Z,73.50
2022-11-01T15:28:25.254Z,73.80
2022-11-01T15:30:58.186Z,73.90
2022-11-01T15:33:31.160Z,73.80
2022-11-01T15:36:01.266Z,74.00
2022-11-01T15:38:31.556Z,73.90
2022-11-01T15:40:59.688Z,73.90
2022-11-01T15:43:29.199Z,73.70
2022-11-01T15:46:01.579Z,73.80
2022-11-01T15:48:33.679Z,73.50
2022-11-01T15:51:05.659Z,73.70
2022-11-01T15:53:36.926Z,73.50
2022-11-01T15:56:10.806Z,73.40
2022-11-01T15:58:41.812Z,73.30
2022-11-01T16:01:14.753Z,73.40
2022-11-01T16:03:48.831Z,73.60
2022-11-01T16:06:22.711Z,73.80
2022-11-01T16:08:54.437Z,73.70
2022-11-01T16:11:25.981Z,73.60
2022-11-01T16:13:59.668Z,73.80
2022-11-01T16:16:29.384Z,73.80
2022-11-01T16:18:57.929Z,73.70
2022-11-01T16:21:30.845Z,74.00
2022-11-01T16:24:05.399Z,74.00
2022-11-01T16:26:54.249Z,74.10
2022-11-01T16:29:44.278Z,73.80
2022-11-01T16:32:20.801Z,73.90
2022-11-01T16:34:48.931Z,73.90
2022-11-01T16:37:22.387Z,74.00
2022-11-01T16:39:50.491Z,73.90
2022-11-01T16:42:20.138Z,74.10
2022-11-01T16:44:51.505Z,74.30
2022-11-01T16:47:21.145Z,74.30
2022-11-01T16:49:51.244Z,73.90
2022-11-01T16:52:19.674Z,74.50
2022-11-01T16:54:50.968Z,74.50
2022-11-01T16:57:25.495Z,74.40
2022-11-01T16:59:55.492Z,74.60
2022-11-01T17:02:28.411Z,74.50
2022-11-01T17:04:59.664Z,74.30
2022-11-01T17:07:28.237Z,74.50
2022-11-01T17:09:56.329Z,74.70
2022-11-01T17:12:24.961Z,74.50
2022-11-01T17:14:54.132Z,74.70
2022-11-01T17:17:24.788Z,74.70
2022-11-01T17:19:59.497Z,74.90
2022-11-01T17:22:33.667Z,75.00
2022-11-01T17:25:01.994Z,74.90
2022-11-01T17:27:30.721Z,75.00
2022-11-01T17:29:58.860Z,75.00
2022-11-01T17:32:27.405Z,74.70
2022-11-01T17:34:56.867Z,74.80
2022-11-01T17:37:27.367Z,74.90
2022-11-01T17:39:55.981Z,75.00
2022-11-01T17:42:24.277Z,75.10
2022-11-01T17:44:52.855Z,74.70
2022-11-01T17:47:20.995Z,74.80
2022-11-01T17:49:49.156Z,74.80
2022-11-01T17:52:18.926Z,74.70
2022-11-01T17:54:47.535Z,74.60
2022-11-01T17:57:15.618Z,74.80
2022-11-01T17:59:44.174Z,74.90
2022-11-01T18:02:12.379Z,75.00
2022-11-01T18:04:41.138Z,75.20
2022-11-01T18:07:13.430Z,75.40
2022-11-01T18:09:42.876Z,75.60
2022-11-01T18:12:16.648Z,75.80
2022-11-01T18:14:56.523Z,76.10
2022-11-01T18:17:46.746Z,75.90
2022-11-01T18:20:36.781Z,75.80
2022-11-01T18:23:10.226Z,75.70
2022-11-01T18:25:42.719Z,75.60
2022-11-01T18:28:14.267Z,75.80
2022-11-01T18:30:44.572Z,75.80
2022-11-01T18:33:23.152Z,75.80
2022-11-01T18:35:59.128Z,75.80
2022-11-01T18:38:33.379Z,75.80
2022-11-01T18:41:04.806Z,75.80
2022-11-01T18:43:35.349Z,75.80
2022-11-01T18:46:23.778Z,75.70
2022-11-01T18:48:59.639Z,75.70
2022-11-01T18:51:30.208Z,75.60
2022-11-01T18:54:18.101Z,75.60
2022-11-01T18:56:51.062Z,75.80
2022-11-01T18:59:27.784Z,75.80
2022-11-01T19:02:00.143Z,75.80
2022-11-01T19:04:31.879Z,75.70
2022-11-01T19:07:11.847Z,75.80
2022-11-01T19:09:44.392Z,75.90
2022-11-01T19:12:16.889Z,75.90
2022-11-01T19:14:47.745Z,76.00
2022-11-01T19:17:23.667Z,76.20
2022-11-01T19:19:53.444Z,76.40
2022-11-01T19:22:38.348Z,76.40
2022-11-01T19:25:21.958Z,76.50
2022-11-01T19:27:54.982Z,76.50
2022-11-01T19:30:25.683Z,76.40
2022-11-01T19:32:55.687Z,76.50
2022-11-01T19:35:24.342Z,76.60
2022-11-01T19:37:55.689Z,76.70
2022-11-01T19:40:29.576Z,76.80
2022-11-01T19:43:04.139Z,77.10
2022-11-01T19:45:34.144Z,77.20
2022-11-01T19:48:04.252Z,77.30
2022-11-01T19:50:39.812Z,77.40
2022-11-01T19:53:20.232Z,77.50
2022-11-01T19:55:52.602Z,77.50
2022-11-01T19:58:44.358Z,77.50
2022-11-01T20:01:32.142Z,77.70
2022-11-01T20:04:02.366Z,78.00
2022-11-01T20:06:33.753Z,77.90
2022-11-01T20:09:05.285Z,77.90
2022-11-01T20:11:34.725Z,77.90
2022-11-01T20:14:04.365Z,77.90
2022-11-01T20:16:32.565Z,77.90
2022-11-01T20:19:01.307Z,77.90
2022-11-01T20:21:30.382Z,77.90
2022-11-01T20:23:59.012Z,78.00
2022-11-01T20:26:27.830Z,78.00
2022-11-01T20:28:56.443Z,78.10
2022-11-01T20:31:26.537Z,78.10
2022-11-01T20:33:55.295Z,79.10
2022-11-01T20:36:24.269Z,78.10
2022-11-01T20:38:52.369Z,77.90
2022-11-01T20:41:20.686Z,77.90
2022-11-01T20:43:50.052Z,77.90
2022-11-01T20:46:18.481Z,77.60
2022-11-01T20:48:48.736Z,77.30
2022-11-01T20:51:16.873Z,77.50
2022-11-01T20:53:45.465Z,77.30
2022-11-01T20:56:13.677Z,77.20
2022-11-01T20:58:41.726Z,77.50
2022-11-01T21:01:17.136Z,77.40
2022-11-01T21:03:45.354Z,77.50
2022-11-01T21:06:17.263Z,77.20
2022-11-01T21:08:47.736Z,76.90
2022-11-01T21:11:22.415Z,77.00
2022-11-01T21:13:51.832Z,77.20
2022-11-01T21:16:25.109Z,77.10
2022-11-01T21:18:56.143Z,76.90
2022-11-01T21:21:36.216Z,76.60
2022-11-01T21:24:27.940Z,76.20
2022-11-01T21:27:23.810Z,76.40
2022-11-01T21:29:51.986Z,76.20
2022-11-01T21:32:27.550Z,76.00
2022-11-01T21:34:55.801Z,76.00
2022-11-01T21:37:29.138Z,75.90
2022-11-01T21:40:05.207Z,75.70
2022-11-01T21:42:36.725Z,75.80
2022-11-01T21:45:27.663Z,76.00
2022-11-01T21:47:58.949Z,76.10
2022-11-01T21:50:27.250Z,76.10
2022-11-01T21:52:56.736Z,76.20
2022-11-01T21:55:24.860Z,76.40
2022-11-01T21:57:52.958Z,76.60
2022-11-01T22:00:21.811Z,76.80
2022-11-01T22:02:49.909Z,77.00
2022-11-01T22:05:18.007Z,77.40
2022-11-01T22:07:46.619Z,77.60
2022-11-01T22:10:16.212Z,77.80
2022-11-01T22:12:45.098Z,78.00
2022-11-01T22:15:13.564Z,78.10
2022-11-01T22:17:42.390Z,78.30
2022-11-01T22:20:11.000Z,78.40
2022-11-01T22:22:39.100Z,78.50
2022-11-01T22:25:07.996Z,78.40
2022-11-01T22:27:37.507Z,78.50
2022-11-01T22:30:06.923Z,78.50
2022-11-01T22:32:35.009Z,78.60
2022-11-01T22:35:03.200Z,78.60
2022-11-01T22:37:35.280Z,78.80
2022-11-01T22:40:10.670Z,79.70
2022-11-01T22:42:41.297Z,78.80
2022-11-01T22:45:15.408Z,78.70
2022-11-01T22:47:44.246Z,78.80
2022-11-01T22:50:14.692Z,78.50
2022-11-01T22:52:45.512Z,78.70
2022-11-01T22:55:23.852Z,78.90
2022-11-01T22:57:58.794Z,79.30
2022-11-01T23:00:32.107Z,79.50
2022-11-01T23:03:03.420Z,79.80
2022-11-01T23:05:31.981Z,79.90
2022-11-01T23:08:02.930Z,80.30
2022-11-01T23:10:33.375Z,80.50
2022-11-01T23:13:30.997Z,80.60
2022-11-01T23:16:01.817Z,80.90
2022-11-01T23:18:33.080Z,80.80
2022-11-01T23:21:03.772Z,80.70
2022-11-01T23:23:32.237Z,80.80
2022-11-01T23:26:03.726Z,80.80
2022-11-01T23:28:35.221Z,80.80
2022-11-01T23:31:04.695Z,80.30
2022-11-01T23:33:38.140Z,80.00
2022-11-01T23:36:11.813Z,79.70
2022-11-01T23:38:42.348Z,79.60
2022-11-01T23:41:22.694Z,79.80
2022-11-01T23:43:53.763Z,80.40
2022-11-01T23:46:22.013Z,80.30
2022-11-01T23:48:51.294Z,80.30
2022-11-01T23:51:22.832Z,80.30
2022-11-01T23:53:54.573Z,80.30
2022-11-01T23:56:23.661Z,80.30
2022-11-01T23:58:56.528Z,80.20
